sensor_id;sensor_type;location;lat;lon;timestamp;P1;durP1;ratioP1;P2;durP2;ratioP2
16468;SDS011;8345;50.902;6.956;2023-02-26T00:00:03;6.23;;;2.50;;
16468;SDS011;8345;50.902;6.956;2023-02-26T00:02:33;6.27;;;2.37;;
16468;SDS011;8345;50.902;6.956;2023-02-26T00:05:01;5.50;;;2.50;;
16468;SDS011;8345;50.902;6.956;2023-02-26T00:07:28;5.37;;;2.53;;
16468;SDS011;8345;50.902;6.956;2023-02-26T00:09:55;6.13;;;3.00;;
16468;SDS011;8345;50.902;6.956;2023-02-26T00:12:24;4.80;;;2.20;;
16468;SDS011;8345;50.902;6.956;2023-02-26T00:14:52;4.37;;;2.20;;
16468;SDS011;8345;50.902;6.956;2023-02-26T00:17:30;5.33;;;2.43;;
16468;SDS011;8345;50.902;6.956;2023-02-26T00:19:58;5.30;;;2.47;;
16468;SDS011;8345;50.902;6.956;2023-02-26T00:22:26;5.70;;;2.47;;
16468;SDS011;8345;50.902;6.956;2023-02-26T00:24:53;5.93;;;2.30;;
16468;SDS011;8345;50.902;6.956;2023-02-26T00:27:20;8.50;;;2.90;;
16468;SDS011;8345;50.902;6.956;2023-02-26T00:29:49;6.73;;;2.60;;
16468;SDS011;8345;50.902;6.956;2023-02-26T00:32:17;4.23;;;2.07;;
16468;SDS011;8345;50.902;6.956;2023-02-26T00:34:44;5.70;;;2.10;;
16468;SDS011;8345;50.902;6.956;2023-02-26T00:37:14;5.43;;;2.53;;
16468;SDS011;8345;50.902;6.956;2023-02-26T00:39:45;5.63;;;2.30;;
16468;SDS011;8345;50.902;6.956;2023-02-26T00:42:16;3.73;;;2.10;;
16468;SDS011;8345;50.902;6.956;2023-02-26T00:44:43;5.13;;;2.57;;
16468;SDS011;8345;50.902;6.956;2023-02-26T00:47:15;6.07;;;2.07;;
16468;SDS011;8345;50.902;6.956;2023-02-26T00:49:47;5.90;;;2.30;;
16468;SDS011;8345;50.902;6.956;2023-02-26T00:52:18;5.13;;;2.17;;
16468;SDS011;8345;50.902;6.956;2023-02-26T00:54:46;4.00;;;2.43;;
16468;SDS011;8345;50.902;6.956;2023-02-26T00:57:13;9.10;;;5.13;;
16468;SDS011;8345;50.902;6.956;2023-02-26T00:59:40;3.00;;;1.77;;
16468;SDS011;8345;50.902;6.956;2023-02-26T01:02:07;4.20;;;1.97;;
16468;SDS011;8345;50.902;6.956;2023-02-26T01:04:36;4.47;;;1.90;;
16468;SDS011;8345;50.902;6.956;2023-02-26T01:07:04;4.30;;;1.93;;
16468;SDS011;8345;50.902;6.956;2023-02-26T01:09:32;4.90;;;2.20;;
16468;SDS011;8345;50.902;6.956;2023-02-26T01:12:00;5.40;;;2.00;;
16468;SDS011;8345;50.902;6.956;2023-02-26T01:14:28;5.27;;;2.20;;
16468;SDS011;8345;50.902;6.956;2023-02-26T01:16:56;8.40;;;2.40;;
16468;SDS011;8345;50.902;6.956;2023-02-26T01:19:28;3.00;;;2.07;;
16468;SDS011;8345;50.902;6.956;2023-02-26T01:22:00;3.97;;;1.90;;
16468;SDS011;8345;50.902;6.956;2023-02-26T01:24:28;7.63;;;2.37;;
16468;SDS011;8345;50.902;6.956;2023-02-26T01:26:56;3.80;;;1.80;;
16468;SDS011;8345;50.902;6.956;2023-02-26T01:29:24;5.53;;;2.10;;
16468;SDS011;8345;50.902;6.956;2023-02-26T01:31:53;5.97;;;2.43;;
16468;SDS011;8345;50.902;6.956;2023-02-26T01:34:22;5.37;;;1.93;;
16468;SDS011;8345;50.902;6.956;2023-02-26T01:36:53;8.43;;;2.20;;
16468;SDS011;8345;50.902;6.956;2023-02-26T01:39:26;5.73;;;1.97;;
16468;SDS011;8345;50.902;6.956;2023-02-26T01:41:56;5.07;;;2.10;;
16468;SDS011;8345;50.902;6.956;2023-02-26T01:44:25;3.67;;;1.83;;
16468;SDS011;8345;50.902;6.956;2023-02-26T01:47:00;4.73;;;1.87;;
16468;SDS011;8345;50.902;6.956;2023-02-26T01:49:29;5.80;;;2.10;;
16468;SDS011;8345;50.902;6.956;2023-02-26T01:51:57;3.33;;;1.77;;
16468;SDS011;8345;50.902;6.956;2023-02-26T01:54:27;3.53;;;2.03;;
16468;SDS011;8345;50.902;6.956;2023-02-26T01:56:56;3.43;;;1.83;;
16468;SDS011;8345;50.902;6.956;2023-02-26T01:59:25;3.87;;;1.90;;
16468;SDS011;8345;50.902;6.956;2023-02-26T02:01:53;4.77;;;1.90;;
16468;SDS011;8345;50.902;6.956;2023-02-26T02:04:22;3.57;;;1.63;;
16468;SDS011;8345;50.902;6.956;2023-02-26T02:06:50;3.33;;;2.00;;
16468;SDS011;8345;50.902;6.956;2023-02-26T02:09:18;4.83;;;1.97;;
16468;SDS011;8345;50.902;6.956;2023-02-26T02:11:50;2.60;;;1.60;;
16468;SDS011;8345;50.902;6.956;2023-02-26T02:14:22;5.53;;;2.00;;
16468;SDS011;8345;50.902;6.956;2023-02-26T02:16:52;2.83;;;1.60;;
16468;SDS011;8345;50.902;6.956;2023-02-26T02:22:11;5.27;;;2.20;;
16468;SDS011;8345;50.902;6.956;2023-02-26T02:24:43;3.97;;;1.90;;
16468;SDS011;8345;50.902;6.956;2023-02-26T02:27:18;3.40;;;1.87;;
16468;SDS011;8345;50.902;6.956;2023-02-26T02:32:37;3.50;;;1.93;;
16468;SDS011;8345;50.902;6.956;2023-02-26T02:35:10;2.20;;;1.80;;
16468;SDS011;8345;50.902;6.956;2023-02-26T02:37:40;3.40;;;1.63;;
16468;SDS011;8345;50.902;6.956;2023-02-26T02:40:10;5.10;;;1.73;;
16468;SDS011;8345;50.902;6.956;2023-02-26T02:42:38;4.67;;;2.13;;
16468;SDS011;8345;50.902;6.956;2023-02-26T02:45:09;5.87;;;2.00;;
16468;SDS011;8345;50.902;6.956;2023-02-26T02:47:39;5.00;;;1.70;;
16468;SDS011;8345;50.902;6.956;2023-02-26T02:50:08;5.33;;;1.70;;
16468;SDS011;8345;50.902;6.956;2023-02-26T02:52:38;3.73;;;2.17;;
16468;SDS011;8345;50.902;6.956;2023-02-26T02:55:09;4.13;;;2.00;;
16468;SDS011;8345;50.902;6.956;2023-02-26T02:57:38;3.57;;;1.60;;
16468;SDS011;8345;50.902;6.956;2023-02-26T03:00:07;3.30;;;1.70;;
16468;SDS011;8345;50.902;6.956;2023-02-26T03:02:38;4.80;;;1.83;;
16468;SDS011;8345;50.902;6.956;2023-02-26T03:05:08;4.53;;;2.00;;
16468;SDS011;8345;50.902;6.956;2023-02-26T03:07:39;2.30;;;1.77;;
16468;SDS011;8345;50.902;6.956;2023-02-26T03:10:08;5.43;;;2.00;;
16468;SDS011;8345;50.902;6.956;2023-02-26T03:12:35;4.60;;;1.80;;
16468;SDS011;8345;50.902;6.956;2023-02-26T03:15:02;4.47;;;1.90;;
16468;SDS011;8345;50.902;6.956;2023-02-26T03:17:30;3.93;;;1.73;;
16468;SDS011;8345;50.902;6.956;2023-02-26T03:20:03;4.10;;;2.10;;
16468;SDS011;8345;50.902;6.956;2023-02-26T03:22:36;5.40;;;2.00;;
16468;SDS011;8345;50.902;6.956;2023-02-26T03:25:06;4.60;;;1.73;;
16468;SDS011;8345;50.902;6.956;2023-02-26T03:27:35;2.63;;;1.33;;
16468;SDS011;8345;50.902;6.956;2023-02-26T03:30:04;3.93;;;1.80;;
16468;SDS011;8345;50.902;6.956;2023-02-26T03:32:35;5.70;;;2.20;;
16468;SDS011;8345;50.902;6.956;2023-02-26T03:35:08;3.63;;;2.37;;
16468;SDS011;8345;50.902;6.956;2023-02-26T03:37:40;2.33;;;1.80;;
16468;SDS011;8345;50.902;6.956;2023-02-26T03:40:10;2.90;;;1.93;;
16468;SDS011;8345;50.902;6.956;2023-02-26T03:42:39;4.97;;;2.13;;
16468;SDS011;8345;50.902;6.956;2023-02-26T03:45:08;4.47;;;1.80;;
16468;SDS011;8345;50.902;6.956;2023-02-26T03:47:37;2.77;;;1.93;;
16468;SDS011;8345;50.902;6.956;2023-02-26T03:50:05;4.13;;;1.63;;
16468;SDS011;8345;50.902;6.956;2023-02-26T03:52:36;3.93;;;1.80;;
16468;SDS011;8345;50.902;6.956;2023-02-26T03:55:07;2.53;;;1.77;;
16468;SDS011;8345;50.902;6.956;2023-02-26T03:57:35;4.23;;;1.70;;
16468;SDS011;8345;50.902;6.956;2023-02-26T04:00:03;4.60;;;1.93;;
16468;SDS011;8345;50.902;6.956;2023-02-26T04:02:32;4.30;;;1.73;;
16468;SDS011;8345;50.902;6.956;2023-02-26T04:05:02;4.10;;;1.83;;
16468;SDS011;8345;50.902;6.956;2023-02-26T04:07:29;2.73;;;1.63;;
16468;SDS011;8345;50.902;6.956;2023-02-26T04:09:56;7.43;;;3.20;;
16468;SDS011;8345;50.902;6.956;2023-02-26T04:12:26;3.53;;;1.50;;
16468;SDS011;8345;50.902;6.956;2023-02-26T04:14:53;6.17;;;1.77;;
16468;SDS011;8345;50.902;6.956;2023-02-26T04:17:21;2.50;;;1.60;;
16468;SDS011;8345;50.902;6.956;2023-02-26T04:19:48;4.30;;;1.70;;
16468;SDS011;8345;50.902;6.956;2023-02-26T04:22:15;2.90;;;1.63;;
16468;SDS011;8345;50.902;6.956;2023-02-26T04:24:42;1.93;;;1.50;;
16468;SDS011;8345;50.902;6.956;2023-02-26T04:27:10;4.53;;;1.70;;
16468;SDS011;8345;50.902;6.956;2023-02-26T04:29:38;1.87;;;1.63;;
16468;SDS011;8345;50.902;6.956;2023-02-26T04:32:05;1.70;;;1.40;;
16468;SDS011;8345;50.902;6.956;2023-02-26T04:34:33;4.17;;;1.70;;
16468;SDS011;8345;50.902;6.956;2023-02-26T04:37:00;3.87;;;1.73;;
16468;SDS011;8345;50.902;6.956;2023-02-26T04:39:27;3.80;;;1.70;;
16468;SDS011;8345;50.902;6.956;2023-02-26T04:41:54;3.37;;;1.33;;
16468;SDS011;8345;50.902;6.956;2023-02-26T04:44:21;2.83;;;1.50;;
16468;SDS011;8345;50.902;6.956;2023-02-26T04:46:50;2.67;;;1.30;;
16468;SDS011;8345;50.902;6.956;2023-02-26T04:49:17;4.57;;;1.70;;
16468;SDS011;8345;50.902;6.956;2023-02-26T04:51:44;3.13;;;1.57;;
16468;SDS011;8345;50.902;6.956;2023-02-26T04:54:11;8.53;;;1.60;;
16468;SDS011;8345;50.902;6.956;2023-02-26T04:56:39;2.77;;;1.50;;
16468;SDS011;8345;50.902;6.956;2023-02-26T04:59:06;1.67;;;1.40;;
16468;SDS011;8345;50.902;6.956;2023-02-26T05:01:33;1.70;;;1.43;;
16468;SDS011;8345;50.902;6.956;2023-02-26T05:04:02;3.37;;;1.60;;
16468;SDS011;8345;50.902;6.956;2023-02-26T05:06:29;1.63;;;1.43;;
16468;SDS011;8345;50.902;6.956;2023-02-26T05:08:56;2.70;;;1.57;;
16468;SDS011;8345;50.902;6.956;2023-02-26T05:11:23;4.67;;;1.63;;
16468;SDS011;8345;50.902;6.956;2023-02-26T05:13:50;4.13;;;1.50;;
16468;SDS011;8345;50.902;6.956;2023-02-26T05:16:17;6.20;;;1.60;;
16468;SDS011;8345;50.902;6.956;2023-02-26T05:18:44;3.67;;;1.70;;
16468;SDS011;8345;50.902;6.956;2023-02-26T05:21:13;4.57;;;1.73;;
16468;SDS011;8345;50.902;6.956;2023-02-26T05:23:40;3.23;;;1.60;;
16468;SDS011;8345;50.902;6.956;2023-02-26T05:26:07;3.83;;;1.57;;
16468;SDS011;8345;50.902;6.956;2023-02-26T05:28:35;3.63;;;1.80;;
16468;SDS011;8345;50.902;6.956;2023-02-26T05:31:02;6.97;;;2.00;;
16468;SDS011;8345;50.902;6.956;2023-02-26T05:33:30;4.20;;;1.80;;
16468;SDS011;8345;50.902;6.956;2023-02-26T05:35:57;4.20;;;1.47;;
16468;SDS011;8345;50.902;6.956;2023-02-26T05:38:26;3.90;;;2.30;;
16468;SDS011;8345;50.902;6.956;2023-02-26T05:40:55;3.70;;;1.60;;
16468;SDS011;8345;50.902;6.956;2023-02-26T05:43:22;2.50;;;1.50;;
16468;SDS011;8345;50.902;6.956;2023-02-26T05:45:49;4.93;;;1.90;;
16468;SDS011;8345;50.902;6.956;2023-02-26T05:48:17;3.63;;;1.80;;
16468;SDS011;8345;50.902;6.956;2023-02-26T05:50:45;3.30;;;1.70;;
16468;SDS011;8345;50.902;6.956;2023-02-26T05:53:12;4.77;;;1.67;;
16468;SDS011;8345;50.902;6.956;2023-02-26T05:55:41;4.40;;;1.67;;
16468;SDS011;8345;50.902;6.956;2023-02-26T05:58:08;6.13;;;1.60;;
16468;SDS011;8345;50.902;6.956;2023-02-26T06:00:35;4.03;;;1.80;;
16468;SDS011;8345;50.902;6.956;2023-02-26T06:03:03;4.47;;;1.67;;
16468;SDS011;8345;50.902;6.956;2023-02-26T06:05:30;3.33;;;1.40;;
16468;SDS011;8345;50.902;6.956;2023-02-26T06:07:57;4.07;;;1.50;;
16468;SDS011;8345;50.902;6.956;2023-02-26T06:10:24;4.67;;;1.70;;
16468;SDS011;8345;50.902;6.956;2023-02-26T06:12:53;3.87;;;1.70;;
16468;SDS011;8345;50.902;6.956;2023-02-26T06:15:20;4.30;;;1.83;;
16468;SDS011;8345;50.902;6.956;2023-02-26T06:17:47;3.67;;;1.50;;
16468;SDS011;8345;50.902;6.956;2023-02-26T06:20:14;5.50;;;1.70;;
16468;SDS011;8345;50.902;6.956;2023-02-26T06:22:41;4.60;;;1.87;;
16468;SDS011;8345;50.902;6.956;2023-02-26T06:25:09;5.10;;;2.13;;
16468;SDS011;8345;50.902;6.956;2023-02-26T06:27:36;4.10;;;1.77;;
16468;SDS011;8345;50.902;6.956;2023-02-26T06:30:05;4.30;;;1.90;;
16468;SDS011;8345;50.902;6.956;2023-02-26T06:32:32;3.13;;;2.03;;
16468;SDS011;8345;50.902;6.956;2023-02-26T06:35:00;5.90;;;1.93;;
16468;SDS011;8345;50.902;6.956;2023-02-26T06:37:27;2.00;;;1.80;;
16468;SDS011;8345;50.902;6.956;2023-02-26T06:39:54;3.63;;;1.60;;
16468;SDS011;8345;50.902;6.956;2023-02-26T06:42:21;3.13;;;2.00;;
16468;SDS011;8345;50.902;6.956;2023-02-26T06:44:48;4.23;;;2.37;;
16468;SDS011;8345;50.902;6.956;2023-02-26T06:47:17;3.93;;;2.00;;
16468;SDS011;8345;50.902;6.956;2023-02-26T06:49:44;3.40;;;2.00;;
16468;SDS011;8345;50.902;6.956;2023-02-26T06:52:13;4.37;;;2.37;;
16468;SDS011;8345;50.902;6.956;2023-02-26T06:54:40;5.50;;;2.27;;
16468;SDS011;8345;50.902;6.956;2023-02-26T06:57:07;3.77;;;2.17;;
16468;SDS011;8345;50.902;6.956;2023-02-26T06:59:34;9.30;;;2.67;;
16468;SDS011;8345;50.902;6.956;2023-02-26T07:02:01;4.50;;;2.83;;
16468;SDS011;8345;50.902;6.956;2023-02-26T07:04:30;3.57;;;2.43;;
16468;SDS011;8345;50.902;6.956;2023-02-26T07:06:57;3.37;;;2.20;;
16468;SDS011;8345;50.902;6.956;2023-02-26T07:09:24;3.30;;;2.27;;
16468;SDS011;8345;50.902;6.956;2023-02-26T07:11:52;4.13;;;2.50;;
16468;SDS011;8345;50.902;6.956;2023-02-26T07:14:19;6.57;;;2.30;;
16468;SDS011;8345;50.902;6.956;2023-02-26T07:16:46;2.87;;;2.10;;
16468;SDS011;8345;50.902;6.956;2023-02-26T07:19:13;4.00;;;2.30;;
16468;SDS011;8345;50.902;6.956;2023-02-26T07:21:42;4.03;;;2.70;;
16468;SDS011;8345;50.902;6.956;2023-02-26T07:24:09;2.63;;;2.33;;
16468;SDS011;8345;50.902;6.956;2023-02-26T07:26:36;5.43;;;2.37;;
16468;SDS011;8345;50.902;6.956;2023-02-26T07:29:04;5.53;;;2.63;;
16468;SDS011;8345;50.902;6.956;2023-02-26T07:31:31;3.37;;;2.57;;
16468;SDS011;8345;50.902;6.956;2023-02-26T07:33:59;3.70;;;2.40;;
16468;SDS011;8345;50.902;6.956;2023-02-26T07:36:26;4.33;;;2.77;;
16468;SDS011;8345;50.902;6.956;2023-02-26T07:38:55;3.33;;;2.80;;
16468;SDS011;8345;50.902;6.956;2023-02-26T07:41:22;4.97;;;2.80;;
16468;SDS011;8345;50.902;6.956;2023-02-26T07:43:49;4.63;;;2.67;;
16468;SDS011;8345;50.902;6.956;2023-02-26T07:46:16;4.23;;;2.77;;
16468;SDS011;8345;50.902;6.956;2023-02-26T07:48:43;3.60;;;2.53;;
16468;SDS011;8345;50.902;6.956;2023-02-26T07:51:10;3.07;;;2.60;;
16468;SDS011;8345;50.902;6.956;2023-02-26T07:53:38;4.87;;;3.03;;
16468;SDS011;8345;50.902;6.956;2023-02-26T07:56:06;3.93;;;2.60;;
16468;SDS011;8345;50.902;6.956;2023-02-26T07:58:34;3.50;;;2.57;;
16468;SDS011;8345;50.902;6.956;2023-02-26T08:01:01;6.90;;;3.23;;
16468;SDS011;8345;50.902;6.956;2023-02-26T08:03:28;5.67;;;2.80;;
16468;SDS011;8345;50.902;6.956;2023-02-26T08:05:56;3.23;;;2.57;;
16468;SDS011;8345;50.902;6.956;2023-02-26T08:08:24;4.20;;;3.20;;
16468;SDS011;8345;50.902;6.956;2023-02-26T08:10:52;4.13;;;2.50;;
16468;SDS011;8345;50.902;6.956;2023-02-26T08:13:20;3.33;;;2.60;;
16468;SDS011;8345;50.902;6.956;2023-02-26T08:15:47;3.90;;;2.63;;
16468;SDS011;8345;50.902;6.956;2023-02-26T08:18:15;4.80;;;2.90;;
16468;SDS011;8345;50.902;6.956;2023-02-26T08:20:42;7.63;;;2.80;;
16468;SDS011;8345;50.902;6.956;2023-02-26T08:23:09;2.90;;;2.70;;
16468;SDS011;8345;50.902;6.956;2023-02-26T08:25:37;3.53;;;2.30;;
16468;SDS011;8345;50.902;6.956;2023-02-26T08:28:04;3.77;;;3.07;;
16468;SDS011;8345;50.902;6.956;2023-02-26T08:30:33;3.90;;;2.47;;
16468;SDS011;8345;50.902;6.956;2023-02-26T08:33:00;4.07;;;2.27;;
16468;SDS011;8345;50.902;6.956;2023-02-26T08:35:27;4.40;;;2.67;;
16468;SDS011;8345;50.902;6.956;2023-02-26T08:37:54;2.40;;;2.10;;
16468;SDS011;8345;50.902;6.956;2023-02-26T08:40:22;3.00;;;2.50;;
16468;SDS011;8345;50.902;6.956;2023-02-26T08:42:50;3.37;;;2.77;;
16468;SDS011;8345;50.902;6.956;2023-02-26T08:45:17;3.50;;;2.47;;
16468;SDS011;8345;50.902;6.956;2023-02-26T08:47:45;2.77;;;2.57;;
16468;SDS011;8345;50.902;6.956;2023-02-26T08:50:12;3.63;;;2.47;;
16468;SDS011;8345;50.902;6.956;2023-02-26T08:52:40;4.70;;;2.70;;
16468;SDS011;8345;50.902;6.956;2023-02-26T08:55:07;2.60;;;2.40;;
16468;SDS011;8345;50.902;6.956;2023-02-26T08:57:35;5.20;;;2.77;;
16468;SDS011;8345;50.902;6.956;2023-02-26T09:00:02;4.30;;;2.77;;
16468;SDS011;8345;50.902;6.956;2023-02-26T09:02:34;3.90;;;2.30;;
16468;SDS011;8345;50.902;6.956;2023-02-26T09:05:03;3.20;;;2.30;;
16468;SDS011;8345;50.902;6.956;2023-02-26T09:07:30;2.87;;;2.00;;
16468;SDS011;8345;50.902;6.956;2023-02-26T09:09:58;3.83;;;2.30;;
16468;SDS011;8345;50.902;6.956;2023-02-26T09:12:25;5.47;;;2.50;;
16468;SDS011;8345;50.902;6.956;2023-02-26T09:14:52;4.13;;;2.50;;
16468;SDS011;8345;50.902;6.956;2023-02-26T09:17:23;5.47;;;2.30;;
16468;SDS011;8345;50.902;6.956;2023-02-26T09:19:50;3.33;;;2.30;;
16468;SDS011;8345;50.902;6.956;2023-02-26T09:22:18;2.67;;;2.23;;
16468;SDS011;8345;50.902;6.956;2023-02-26T09:24:45;4.57;;;1.93;;
16468;SDS011;8345;50.902;6.956;2023-02-26T09:27:13;2.80;;;1.70;;
16468;SDS011;8345;50.902;6.956;2023-02-26T09:29:40;2.80;;;1.70;;
16468;SDS011;8345;50.902;6.956;2023-02-26T09:32:07;3.83;;;1.97;;
16468;SDS011;8345;50.902;6.956;2023-02-26T09:34:34;4.60;;;1.50;;
16468;SDS011;8345;50.902;6.956;2023-02-26T09:37:01;3.03;;;1.60;;
16468;SDS011;8345;50.902;6.956;2023-02-26T09:39:30;3.83;;;1.97;;
16468;SDS011;8345;50.902;6.956;2023-02-26T09:41:58;1.83;;;1.40;;
16468;SDS011;8345;50.902;6.956;2023-02-26T09:44:26;2.70;;;1.60;;
16468;SDS011;8345;50.902;6.956;2023-02-26T09:46:56;5.00;;;1.53;;
16468;SDS011;8345;50.902;6.956;2023-02-26T09:49:29;2.87;;;1.40;;
16468;SDS011;8345;50.902;6.956;2023-02-26T09:51:57;2.17;;;1.30;;
16468;SDS011;8345;50.902;6.956;2023-02-26T09:54:27;2.17;;;1.30;;
16468;SDS011;8345;50.902;6.956;2023-02-26T09:56:58;13.60;;;2.23;;
16468;SDS011;8345;50.902;6.956;2023-02-26T09:59:26;2.57;;;0.93;;
16468;SDS011;8345;50.902;6.956;2023-02-26T10:01:57;1.57;;;1.13;;
16468;SDS011;8345;50.902;6.956;2023-02-26T10:04:29;1.90;;;1.07;;
16468;SDS011;8345;50.902;6.956;2023-02-26T10:07:04;1.77;;;1.00;;
16468;SDS011;8345;50.902;6.956;2023-02-26T10:09:37;1.17;;;0.97;;
16468;SDS011;8345;50.902;6.956;2023-02-26T10:12:09;3.37;;;1.43;;
16468;SDS011;8345;50.902;6.956;2023-02-26T10:14:39;2.63;;;1.13;;
16468;SDS011;8345;50.902;6.956;2023-02-26T10:17:11;1.83;;;1.00;;
16468;SDS011;8345;50.902;6.956;2023-02-26T10:19:41;2.53;;;1.20;;
16468;SDS011;8345;50.902;6.956;2023-02-26T10:22:12;2.00;;;0.90;;
16468;SDS011;8345;50.902;6.956;2023-02-26T10:24:43;1.70;;;0.90;;
16468;SDS011;8345;50.902;6.956;2023-02-26T10:27:13;2.67;;;1.00;;
16468;SDS011;8345;50.902;6.956;2023-02-26T10:29:43;1.70;;;1.10;;
16468;SDS011;8345;50.902;6.956;2023-02-26T10:32:16;2.57;;;1.07;;
16468;SDS011;8345;50.902;6.956;2023-02-26T10:34:46;2.17;;;0.80;;
16468;SDS011;8345;50.902;6.956;2023-02-26T10:37:15;1.90;;;0.83;;
16468;SDS011;8345;50.902;6.956;2023-02-26T10:39:46;13.83;;;1.47;;
16468;SDS011;8345;50.902;6.956;2023-02-26T10:42:16;1.20;;;1.10;;
16468;SDS011;8345;50.902;6.956;2023-02-26T10:44:46;1.47;;;1.13;;
16468;SDS011;8345;50.902;6.956;2023-02-26T10:47:27;2.93;;;0.90;;
16468;SDS011;8345;50.902;6.956;2023-02-26T10:49:58;1.90;;;0.90;;
16468;SDS011;8345;50.902;6.956;2023-02-26T10:52:28;2.07;;;0.97;;
16468;SDS011;8345;50.902;6.956;2023-02-26T10:57:41;1.07;;;0.70;;
16468;SDS011;8345;50.902;6.956;2023-02-26T11:00:14;1.47;;;1.00;;
16468;SDS011;8345;50.902;6.956;2023-02-26T11:02:43;0.80;;;0.80;;
16468;SDS011;8345;50.902;6.956;2023-02-26T11:05:13;2.40;;;1.00;;
16468;SDS011;8345;50.902;6.956;2023-02-26T11:07:41;1.90;;;1.10;;
16468;SDS011;8345;50.902;6.956;2023-02-26T11:10:13;1.77;;;1.10;;
16468;SDS011;8345;50.902;6.956;2023-02-26T11:12:43;2.30;;;0.90;;
16468;SDS011;8345;50.902;6.956;2023-02-26T11:15:12;2.30;;;1.20;;
16468;SDS011;8345;50.902;6.956;2023-02-26T11:17:39;1.10;;;0.90;;
16468;SDS011;8345;50.902;6.956;2023-02-26T11:20:12;2.67;;;1.00;;
16468;SDS011;8345;50.902;6.956;2023-02-26T11:22:43;2.30;;;1.20;;
16468;SDS011;8345;50.902;6.956;2023-02-26T11:25:12;1.47;;;1.10;;
16468;SDS011;8345;50.902;6.956;2023-02-26T11:27:39;1.30;;;1.10;;
16468;SDS011;8345;50.902;6.956;2023-02-26T11:30:15;2.27;;;1.00;;
16468;SDS011;8345;50.902;6.956;2023-02-26T11:32:43;2.00;;;1.13;;
16468;SDS011;8345;50.902;6.956;2023-02-26T11:35:12;2.20;;;0.90;;
16468;SDS011;8345;50.902;6.956;2023-02-26T11:37:40;1.43;;;1.03;;
16468;SDS011;8345;50.902;6.956;2023-02-26T11:40:12;7.57;;;3.07;;
16468;SDS011;8345;50.902;6.956;2023-02-26T11:42:43;2.67;;;1.10;;
16468;SDS011;8345;50.902;6.956;2023-02-26T11:45:15;1.73;;;1.10;;
16468;SDS011;8345;50.902;6.956;2023-02-26T11:47:43;4.83;;;1.43;;
16468;SDS011;8345;50.902;6.956;2023-02-26T11:50:13;1.87;;;1.17;;
16468;SDS011;8345;50.902;6.956;2023-02-26T11:52:42;1.60;;;1.30;;
16468;SDS011;8345;50.902;6.956;2023-02-26T11:55:17;2.93;;;1.00;;
16468;SDS011;8345;50.902;6.956;2023-02-26T11:57:46;1.57;;;0.90;;
16468;SDS011;8345;50.902;6.956;2023-02-26T12:00:20;2.33;;;1.03;;
16468;SDS011;8345;50.902;6.956;2023-02-26T12:02:49;1.83;;;0.83;;
16468;SDS011;8345;50.902;6.956;2023-02-26T12:05:17;2.27;;;1.17;;
16468;SDS011;8345;50.902;6.956;2023-02-26T12:07:44;2.50;;;1.37;;
16468;SDS011;8345;50.902;6.956;2023-02-26T12:10:13;2.53;;;1.00;;
16468;SDS011;8345;50.902;6.956;2023-02-26T12:12:45;1.73;;;0.83;;
16468;SDS011;8345;50.902;6.956;2023-02-26T12:15:25;2.30;;;1.17;;
16468;SDS011;8345;50.902;6.956;2023-02-26T12:17:57;1.53;;;1.00;;
16468;SDS011;8345;50.902;6.956;2023-02-26T12:20:28;2.47;;;1.20;;
16468;SDS011;8345;50.902;6.956;2023-02-26T12:23:02;1.67;;;0.90;;
16468;SDS011;8345;50.902;6.956;2023-02-26T12:25:36;1.20;;;1.00;;
16468;SDS011;8345;50.902;6.956;2023-02-26T12:31:00;1.13;;;0.70;;
16468;SDS011;8345;50.902;6.956;2023-02-26T12:33:33;1.27;;;0.90;;
16468;SDS011;8345;50.902;6.956;2023-02-26T12:36:08;2.57;;;1.20;;
16468;SDS011;8345;50.902;6.956;2023-02-26T12:38:45;2.53;;;1.20;;
16468;SDS011;8345;50.902;6.956;2023-02-26T12:41:27;1.93;;;1.07;;
16468;SDS011;8345;50.902;6.956;2023-02-26T12:43:55;1.33;;;1.03;;
16468;SDS011;8345;50.902;6.956;2023-02-26T12:46:29;1.63;;;1.00;;
16468;SDS011;8345;50.902;6.956;2023-02-26T12:51:48;3.07;;;0.97;;
16468;SDS011;8345;50.902;6.956;2023-02-26T12:54:29;1.97;;;0.90;;
16468;SDS011;8345;50.902;6.956;2023-02-26T13:02:47;1.67;;;1.00;;
16468;SDS011;8345;50.902;6.956;2023-02-26T13:05:26;1.73;;;1.00;;
16468;SDS011;8345;50.902;6.956;2023-02-26T13:07:59;1.13;;;0.83;;
16468;SDS011;8345;50.902;6.956;2023-02-26T13:10:33;1.80;;;0.90;;
16468;SDS011;8345;50.902;6.956;2023-02-26T13:13:06;0.80;;;0.70;;
16468;SDS011;8345;50.902;6.956;2023-02-26T13:15:38;1.63;;;0.90;;
16468;SDS011;8345;50.902;6.956;2023-02-26T13:18:09;1.43;;;0.93;;
16468;SDS011;8345;50.902;6.956;2023-02-26T13:20:37;2.30;;;1.27;;
16468;SDS011;8345;50.902;6.956;2023-02-26T13:23:09;1.30;;;0.80;;
16468;SDS011;8345;50.902;6.956;2023-02-26T13:25:39;2.03;;;1.30;;
16468;SDS011;8345;50.902;6.956;2023-02-26T13:28:16;1.73;;;1.10;;
16468;SDS011;8345;50.902;6.956;2023-02-26T13:30:47;1.63;;;1.00;;
16468;SDS011;8345;50.902;6.956;2023-02-26T13:33:18;0.80;;;0.80;;
16468;SDS011;8345;50.902;6.956;2023-02-26T13:35:45;2.97;;;1.20;;
16468;SDS011;8345;50.902;6.956;2023-02-26T13:38:16;1.53;;;1.17;;
16468;SDS011;8345;50.902;6.956;2023-02-26T13:40:47;1.03;;;0.90;;
16468;SDS011;8345;50.902;6.956;2023-02-26T13:43:22;1.20;;;0.90;;
16468;SDS011;8345;50.902;6.956;2023-02-26T13:45:54;0.97;;;0.83;;
16468;SDS011;8345;50.902;6.956;2023-02-26T13:48:29;2.50;;;1.43;;
16468;SDS011;8345;50.902;6.956;2023-02-26T13:51:00;1.53;;;0.80;;
16468;SDS011;8345;50.902;6.956;2023-02-26T13:53:45;1.57;;;1.40;;
16468;SDS011;8345;50.902;6.956;2023-02-26T13:56:13;1.77;;;1.10;;
16468;SDS011;8345;50.902;6.956;2023-02-26T13:58:41;2.77;;;1.07;;
16468;SDS011;8345;50.902;6.956;2023-02-26T14:01:12;1.27;;;0.90;;
16468;SDS011;8345;50.902;6.956;2023-02-26T14:03:43;1.40;;;0.90;;
16468;SDS011;8345;50.902;6.956;2023-02-26T14:08:57;1.97;;;1.10;;
16468;SDS011;8345;50.902;6.956;2023-02-26T14:14:18;1.53;;;0.90;;
16468;SDS011;8345;50.902;6.956;2023-02-26T14:16:48;2.40;;;0.93;;
16468;SDS011;8345;50.902;6.956;2023-02-26T14:19:21;2.87;;;1.00;;
16468;SDS011;8345;50.902;6.956;2023-02-26T14:21:49;1.33;;;0.93;;
16468;SDS011;8345;50.902;6.956;2023-02-26T14:24:20;3.67;;;0.97;;
16468;SDS011;8345;50.902;6.956;2023-02-26T14:26:48;0.60;;;0.60;;
16468;SDS011;8345;50.902;6.956;2023-02-26T14:29:19;1.00;;;0.80;;
16468;SDS011;8345;50.902;6.956;2023-02-26T14:34:37;2.97;;;1.10;;
16468;SDS011;8345;50.902;6.956;2023-02-26T14:37:07;1.63;;;0.97;;
16468;SDS011;8345;50.902;6.956;2023-02-26T14:39:39;2.00;;;0.87;;
16468;SDS011;8345;50.902;6.956;2023-02-26T14:42:08;2.43;;;1.13;;
16468;SDS011;8345;50.902;6.956;2023-02-26T14:44:39;1.20;;;1.00;;
16468;SDS011;8345;50.902;6.956;2023-02-26T14:47:06;2.00;;;1.00;;
16468;SDS011;8345;50.902;6.956;2023-02-26T14:49:36;2.20;;;1.10;;
16468;SDS011;8345;50.902;6.956;2023-02-26T14:54:52;1.43;;;1.03;;
16468;SDS011;8345;50.902;6.956;2023-02-26T14:57:27;1.10;;;1.00;;
16468;SDS011;8345;50.902;6.956;2023-02-26T15:00:09;2.10;;;1.00;;
16468;SDS011;8345;50.902;6.956;2023-02-26T15:02:46;1.17;;;0.90;;
16468;SDS011;8345;50.902;6.956;2023-02-26T15:05:24;0.87;;;0.87;;
16468;SDS011;8345;50.902;6.956;2023-02-26T15:08:00;2.17;;;1.23;;
16468;SDS011;8345;50.902;6.956;2023-02-26T15:10:36;0.97;;;0.90;;
16468;SDS011;8345;50.902;6.956;2023-02-26T15:13:11;1.67;;;1.10;;
16468;SDS011;8345;50.902;6.956;2023-02-26T15:15:44;2.40;;;1.10;;
16468;SDS011;8345;50.902;6.956;2023-02-26T15:18:32;1.03;;;0.93;;
16468;SDS011;8345;50.902;6.956;2023-02-26T15:21:06;1.37;;;0.87;;
16468;SDS011;8345;50.902;6.956;2023-02-26T15:23:37;1.30;;;0.80;;
16468;SDS011;8345;50.902;6.956;2023-02-26T15:26:05;1.90;;;0.90;;
16468;SDS011;8345;50.902;6.956;2023-02-26T15:28:34;1.50;;;0.90;;
16468;SDS011;8345;50.902;6.956;2023-02-26T15:31:03;1.10;;;0.87;;
16468;SDS011;8345;50.902;6.956;2023-02-26T15:33:31;3.37;;;1.30;;
16468;SDS011;8345;50.902;6.956;2023-02-26T15:35:58;1.53;;;0.90;;
16468;SDS011;8345;50.902;6.956;2023-02-26T15:38:28;2.40;;;1.10;;
16468;SDS011;8345;50.902;6.956;2023-02-26T15:40:56;0.70;;;0.70;;
16468;SDS011;8345;50.902;6.956;2023-02-26T15:43:26;2.00;;;1.10;;